sensor_id;sensor_type;location;lat;lon;timestamp;pressure;altitude;pressure_sealevel;temperature;humidity
73085;BME280;62974;49.460;10.892;2023-04-20T00:00:15;97870.22;;;5.29;67.48
73085;BME280;62974;49.460;10.892;2023-04-20T00:02:43;97858.72;;;5.29;67.57
73085;BME280;62974;49.460;10.892;2023-04-20T00:05:12;97864.22;;;5.35;67.94
73085;BME280;62974;49.460;10.892;2023-04-20T00:07:39;97855.03;;;5.38;68.33
73085;BME280;62974;49.460;10.892;2023-04-20T00:10:08;97854.72;;;5.41;68.25
73085;BME280;62974;49.460;10.892;2023-04-20T00:12:36;97848.91;;;5.37;68.81
73085;BME280;62974;49.460;10.892;2023-04-20T00:15:04;97846.25;;;5.37;68.02
73085;BME280;62974;49.460;10.892;2023-04-20T00:17:32;97841.06;;;5.28;68.32
73085;BME280;62974;49.460;10.892;2023-04-20T00:20:00;97838.06;;;5.22;67.68
73085;BME280;62974;49.460;10.892;2023-04-20T00:22:30;97835.06;;;5.26;68.02
73085;BME280;62974;49.460;10.892;2023-04-20T00:24:57;97831.25;;;5.20;68.82
73085;BME280;62974;49.460;10.892;2023-04-20T00:27:24;97824.94;;;5.13;68.10
73085;BME280;62974;49.460;10.892;2023-04-20T00:29:52;97821.44;;;5.12;69.21
73085;BME280;62974;49.460;10.892;2023-04-20T00:32:19;97823.41;;;5.02;68.51
73085;BME280;62974;49.460;10.892;2023-04-20T00:34:47;97815.63;;;5.09;68.51
73085;BME280;62974;49.460;10.892;2023-04-20T00:37:14;97812.13;;;5.08;67.90
73085;BME280;62974;49.460;10.892;2023-04-20T00:39:43;97802.97;;;5.03;67.93
73085;BME280;62974;49.460;10.892;2023-04-20T00:42:10;97808.78;;;5.06;68.54
73085;BME280;62974;49.460;10.892;2023-04-20T00:44:38;97810.59;;;4.98;68.51
73085;BME280;62974;49.460;10.892;2023-04-20T00:47:05;97807.31;;;5.04;68.70
73085;BME280;62974;49.460;10.892;2023-04-20T00:49:33;97805.13;;;4.91;69.08
73085;BME280;62974;49.460;10.892;2023-04-20T00:52:01;97805.81;;;4.93;68.95
73085;BME280;62974;49.460;10.892;2023-04-20T00:54:29;97799.81;;;4.99;68.21
73085;BME280;62974;49.460;10.892;2023-04-20T00:56:58;97795.47;;;4.90;68.79
73085;BME280;62974;49.460;10.892;2023-04-20T00:59:27;97798.63;;;4.94;68.69
73085;BME280;62974;49.460;10.892;2023-04-20T01:01:54;97788.16;;;4.76;68.72
73085;BME280;62974;49.460;10.892;2023-04-20T01:04:22;97793.13;;;4.71;69.39
73085;BME280;62974;49.460;10.892;2023-04-20T01:06:50;97792.16;;;4.80;69.10
73085;BME280;62974;49.460;10.892;2023-04-20T01:09:17;97786.81;;;4.72;68.41
73085;BME280;62974;49.460;10.892;2023-04-20T01:11:45;97786.00;;;4.80;68.70
73085;BME280;62974;49.460;10.892;2023-04-20T01:14:14;97784.66;;;4.76;68.79
73085;BME280;62974;49.460;10.892;2023-04-20T01:16:41;97782.34;;;4.81;69.68
73085;BME280;62974;49.460;10.892;2023-04-20T01:19:10;97779.84;;;4.79;69.20
73085;BME280;62974;49.460;10.892;2023-04-20T01:21:37;97778.81;;;4.64;69.41
73085;BME280;62974;49.460;10.892;2023-04-20T01:24:07;97779.81;;;4.71;69.61
73085;BME280;62974;49.460;10.892;2023-04-20T01:26:34;97775.19;;;4.73;69.04
73085;BME280;62974;49.460;10.892;2023-04-20T01:29:02;97768.06;;;4.73;69.90
73085;BME280;62974;49.460;10.892;2023-04-20T01:31:29;97769.84;;;4.57;69.27
73085;BME280;62974;49.460;10.892;2023-04-20T01:33:57;97773.66;;;4.62;69.45
73085;BME280;62974;49.460;10.892;2023-04-20T01:36:24;97772.19;;;4.68;70.26
73085;BME280;62974;49.460;10.892;2023-04-20T01:38:52;97781.31;;;4.57;70.39
73085;BME280;62974;49.460;10.892;2023-04-20T01:41:21;97770.69;;;4.65;69.28
73085;BME280;62974;49.460;10.892;2023-04-20T01:43:48;97769.53;;;4.68;70.43
73085;BME280;62974;49.460;10.892;2023-04-20T01:46:16;97774.84;;;4.68;70.04
73085;BME280;62974;49.460;10.892;2023-04-20T01:48:43;97767.69;;;4.60;70.37
73085;BME280;62974;49.460;10.892;2023-04-20T01:51:11;97766.88;;;4.68;70.47
73085;BME280;62974;49.460;10.892;2023-04-20T01:53:38;97762.72;;;4.57;70.56
73085;BME280;62974;49.460;10.892;2023-04-20T01:56:06;97767.00;;;4.58;70.14
73085;BME280;62974;49.460;10.892;2023-04-20T01:58:35;97765.38;;;4.57;70.30
73085;BME280;62974;49.460;10.892;2023-04-20T02:01:02;97760.53;;;4.61;70.15
73085;BME280;62974;49.460;10.892;2023-04-20T02:03:30;97763.69;;;4.48;70.19
73085;BME280;62974;49.460;10.892;2023-04-20T02:05:58;97752.22;;;4.56;70.54
73085;BME280;62974;49.460;10.892;2023-04-20T02:08:26;97749.56;;;4.48;70.68
73085;BME280;62974;49.460;10.892;2023-04-20T02:10:53;97758.50;;;4.47;70.18
73085;BME280;62974;49.460;10.892;2023-04-20T02:13:20;97752.06;;;4.49;70.74
73085;BME280;62974;49.460;10.892;2023-04-20T02:15:49;97757.03;;;4.44;71.06
73085;BME280;62974;49.460;10.892;2023-04-20T02:18:17;97748.03;;;4.37;69.89
73085;BME280;62974;49.460;10.892;2023-04-20T02:20:45;97750.03;;;4.35;69.95
73085;BME280;62974;49.460;10.892;2023-04-20T02:23:12;97751.34;;;4.39;70.66
73085;BME280;62974;49.460;10.892;2023-04-20T02:25:40;97749.16;;;4.26;70.65
73085;BME280;62974;49.460;10.892;2023-04-20T02:28:08;97744.88;;;4.25;70.05
73085;BME280;62974;49.460;10.892;2023-04-20T02:30:36;97744.16;;;4.15;69.63
73085;BME280;62974;49.460;10.892;2023-04-20T02:33:04;97757.31;;;4.25;70.46
73085;BME280;62974;49.460;10.892;2023-04-20T02:35:32;97751.66;;;4.20;70.50
73085;BME280;62974;49.460;10.892;2023-04-20T02:38:00;97739.00;;;4.22;70.77
73085;BME280;62974;49.460;10.892;2023-04-20T02:40:27;97737.50;;;4.11;70.75
73085;BME280;62974;49.460;10.892;2023-04-20T02:42:55;97734.72;;;4.21;70.33
73085;BME280;62974;49.460;10.892;2023-04-20T02:45:22;97730.88;;;4.23;70.07
73085;BME280;62974;49.460;10.892;2023-04-20T02:47:50;97728.38;;;4.14;71.09
73085;BME280;62974;49.460;10.892;2023-04-20T02:50:19;97717.22;;;4.10;70.33
73085;BME280;62974;49.460;10.892;2023-04-20T02:52:46;97722.75;;;4.17;70.91
73085;BME280;62974;49.460;10.892;2023-04-20T02:55:14;97729.50;;;4.03;70.89
73085;BME280;62974;49.460;10.892;2023-04-20T02:57:41;97720.41;;;4.14;70.26
73085;BME280;62974;49.460;10.892;2023-04-20T03:00:10;97724.09;;;4.21;70.97
73085;BME280;62974;49.460;10.892;2023-04-20T03:02:38;97716.94;;;4.13;70.57
73085;BME280;62974;49.460;10.892;2023-04-20T03:05:07;97709.94;;;4.12;70.46
73085;BME280;62974;49.460;10.892;2023-04-20T03:07:36;97721.56;;;4.11;71.04
73085;BME280;62974;49.460;10.892;2023-04-20T03:10:04;97708.09;;;4.05;70.48
73085;BME280;62974;49.460;10.892;2023-04-20T03:12:32;97712.09;;;4.09;70.25
73085;BME280;62974;49.460;10.892;2023-04-20T03:14:59;97715.72;;;4.00;70.83
73085;BME280;62974;49.460;10.892;2023-04-20T03:17:27;97709.06;;;3.96;71.23
73085;BME280;62974;49.460;10.892;2023-04-20T03:19:54;97713.53;;;3.95;70.81
73085;BME280;62974;49.460;10.892;2023-04-20T03:22:22;97712.56;;;3.96;70.15
73085;BME280;62974;49.460;10.892;2023-04-20T03:24:51;97714.53;;;3.86;70.46
73085;BME280;62974;49.460;10.892;2023-04-20T03:27:19;97710.72;;;3.89;71.00
73085;BME280;62974;49.460;10.892;2023-04-20T03:29:46;97719.00;;;3.86;70.79
73085;BME280;62974;49.460;10.892;2023-04-20T03:32:14;97713.72;;;3.94;70.44
73085;BME280;62974;49.460;10.892;2023-04-20T03:34:41;97715.50;;;3.85;70.95
73085;BME280;62974;49.460;10.892;2023-04-20T03:37:09;97716.50;;;3.84;71.83
73085;BME280;62974;49.460;10.892;2023-04-20T03:39:36;97717.69;;;3.90;70.99
73085;BME280;62974;49.460;10.892;2023-04-20T03:42:05;97715.84;;;3.90;71.12
73085;BME280;62974;49.460;10.892;2023-04-20T03:44:33;97717.34;;;3.93;70.98
73085;BME280;62974;49.460;10.892;2023-04-20T03:47:00;97708.94;;;4.05;71.10
73085;BME280;62974;49.460;10.892;2023-04-20T03:49:28;97713.84;;;3.84;71.70
73085;BME280;62974;49.460;10.892;2023-04-20T03:51:56;97712.50;;;3.80;71.37
73085;BME280;62974;49.460;10.892;2023-04-20T03:54:23;97711.03;;;3.86;71.63
73085;BME280;62974;49.460;10.892;2023-04-20T03:56:50;97709.00;;;3.79;71.80
73085;BME280;62974;49.460;10.892;2023-04-20T03:59:19;97706.81;;;3.75;71.59
73085;BME280;62974;49.460;10.892;2023-04-20T04:01:47;97711.94;;;3.68;71.16
73085;BME280;62974;49.460;10.892;2023-04-20T04:04:14;97709.50;;;3.83;71.71
73085;BME280;62974;49.460;10.892;2023-04-20T04:06:42;97711.69;;;3.88;71.49
73085;BME280;62974;49.460;10.892;2023-04-20T04:09:09;97705.84;;;3.76;71.10
73085;BME280;62974;49.460;10.892;2023-04-20T04:11:37;97712.47;;;3.72;72.11
73085;BME280;62974;49.460;10.892;2023-04-20T04:14:04;97709.78;;;3.64;71.59
73085;BME280;62974;49.460;10.892;2023-04-20T04:16:33;97709.28;;;3.68;71.66
73085;BME280;62974;49.460;10.892;2023-04-20T04:19:00;97711.94;;;3.68;71.55
73085;BME280;62974;49.460;10.892;2023-04-20T04:21:28;97717.81;;;3.80;71.22
73085;BME280;62974;49.460;10.892;2023-04-20T04:23:56;97708.47;;;3.68;72.16
73085;BME280;62974;49.460;10.892;2023-04-20T04:26:24;97709.66;;;3.73;71.16
73085;BME280;62974;49.460;10.892;2023-04-20T04:28:51;97708.31;;;3.69;72.06
73085;BME280;62974;49.460;10.892;2023-04-20T04:31:19;97703.50;;;3.73;71.54
73085;BME280;62974;49.460;10.892;2023-04-20T04:33:48;97704.63;;;3.70;71.43
73085;BME280;62974;49.460;10.892;2023-04-20T04:36:16;97713.25;;;3.64;71.41
73085;BME280;62974;49.460;10.892;2023-04-20T04:38:43;97710.13;;;3.69;71.34
73085;BME280;62974;49.460;10.892;2023-04-20T04:41:11;97703.47;;;3.65;72.86
73085;BME280;62974;49.460;10.892;2023-04-20T04:43:39;97710.06;;;3.53;73.02
73085;BME280;62974;49.460;10.892;2023-04-20T04:46:07;97708.72;;;3.23;73.93
73085;BME280;62974;49.460;10.892;2023-04-20T04:48:36;97707.88;;;3.48;73.99
73085;BME280;62974;49.460;10.892;2023-04-20T04:51:07;97707.22;;;3.46;74.29
73085;BME280;62974;49.460;10.892;2023-04-20T04:53:35;97696.81;;;3.61;74.59
73085;BME280;62974;49.460;10.892;2023-04-20T04:56:03;97692.72;;;3.74;74.69
73085;BME280;62974;49.460;10.892;2023-04-20T04:58:32;97688.66;;;4.04;74.06
73085;BME280;62974;49.460;10.892;2023-04-20T05:00:59;97678.97;;;3.87;74.91
73085;BME280;62974;49.460;10.892;2023-04-20T05:03:27;97684.06;;;4.39;75.63
73085;BME280;62974;49.460;10.892;2023-04-20T05:05:54;97676.44;;;4.44;73.30
73085;BME280;62974;49.460;10.892;2023-04-20T05:08:23;97679.09;;;4.60;73.46
73085;BME280;62974;49.460;10.892;2023-04-20T05:10:51;97686.38;;;4.17;75.34
73085;BME280;62974;49.460;10.892;2023-04-20T05:13:18;97683.25;;;4.54;75.85
73085;BME280;62974;49.460;10.892;2023-04-20T05:15:46;97689.09;;;3.84;78.89
73085;BME280;62974;49.460;10.892;2023-04-20T05:18:13;97690.97;;;3.99;81.45
73085;BME280;62974;49.460;10.892;2023-04-20T05:20:41;97685.38;;;4.18;80.88
73085;BME280;62974;49.460;10.892;2023-04-20T05:23:09;97689.53;;;3.71;82.82
73085;BME280;62974;49.460;10.892;2023-04-20T05:25:38;97687.97;;;3.94;84.50
73085;BME280;62974;49.460;10.892;2023-04-20T05:28:05;97688.03;;;4.35;81.62
73085;BME280;62974;49.460;10.892;2023-04-20T05:30:33;97688.72;;;4.29;81.49
73085;BME280;62974;49.460;10.892;2023-04-20T05:33:00;97684.91;;;4.47;80.64
73085;BME280;62974;49.460;10.892;2023-04-20T05:35:28;97681.38;;;4.22;82.61
73085;BME280;62974;49.460;10.892;2023-04-20T05:37:56;97683.91;;;4.40;81.90
73085;BME280;62974;49.460;10.892;2023-04-20T05:40:25;97684.53;;;4.26;82.81
73085;BME280;62974;49.460;10.892;2023-04-20T05:42:54;97680.56;;;4.95;80.25
73085;BME280;62974;49.460;10.892;2023-04-20T05:45:22;97685.75;;;4.48;79.81
73085;BME280;62974;49.460;10.892;2023-04-20T05:47:53;97690.13;;;3.99;82.09
73085;BME280;62974;49.460;10.892;2023-04-20T05:50:21;97689.06;;;4.42;82.10
73085;BME280;62974;49.460;10.892;2023-04-20T05:52:49;97682.13;;;3.83;82.69
73085;BME280;62974;49.460;10.892;2023-04-20T05:55:17;97682.13;;;3.83;83.80
73085;BME280;62974;49.460;10.892;2023-04-20T05:57:48;97688.22;;;3.67;85.94
73085;BME280;62974;49.460;10.892;2023-04-20T06:00:19;97693.13;;;3.46;87.42
73085;BME280;62974;49.460;10.892;2023-04-20T06:02:51;97679.63;;;3.73;87.30
73085;BME280;62974;49.460;10.892;2023-04-20T06:05:28;97679.66;;;3.89;85.69
73085;BME280;62974;49.460;10.892;2023-04-20T06:07:55;97685.41;;;3.68;86.20
73085;BME280;62974;49.460;10.892;2023-04-20T06:10:23;97686.78;;;3.81;86.35
73085;BME280;62974;49.460;10.892;2023-04-20T06:12:50;97685.31;;;4.02;85.14
73085;BME280;62974;49.460;10.892;2023-04-20T06:15:19;97687.41;;;4.33;83.81
73085;BME280;62974;49.460;10.892;2023-04-20T06:17:47;97684.91;;;4.39;84.22
73085;BME280;62974;49.460;10.892;2023-04-20T06:20:15;97682.09;;;4.33;84.67
73085;BME280;62974;49.460;10.892;2023-04-20T06:22:43;97694.38;;;4.25;83.60
73085;BME280;62974;49.460;10.892;2023-04-20T06:25:11;97702.06;;;3.87;86.17
73085;BME280;62974;49.460;10.892;2023-04-20T06:27:40;97703.66;;;4.21;85.45
73085;BME280;62974;49.460;10.892;2023-04-20T06:30:08;97694.38;;;4.25;84.93
73085;BME280;62974;49.460;10.892;2023-04-20T06:32:37;97692.72;;;4.33;83.79
73085;BME280;62974;49.460;10.892;2023-04-20T06:35:05;97698.66;;;4.26;85.12
73085;BME280;62974;49.460;10.892;2023-04-20T06:37:34;97695.53;;;4.39;84.06
73085;BME280;62974;49.460;10.892;2023-04-20T06:40:02;97690.72;;;4.67;83.99
73085;BME280;62974;49.460;10.892;2023-04-20T06:42:33;97690.91;;;4.73;83.34
73085;BME280;62974;49.460;10.892;2023-04-20T06:45:00;97694.22;;;4.51;82.92
73085;BME280;62974;49.460;10.892;2023-04-20T06:47:28;97687.72;;;4.70;83.73
73085;BME280;62974;49.460;10.892;2023-04-20T06:50:00;97685.56;;;4.98;83.08
73085;BME280;62974;49.460;10.892;2023-04-20T06:52:29;97688.72;;;5.01;82.09
73085;BME280;62974;49.460;10.892;2023-04-20T06:55:00;97683.09;;;4.88;82.57
73085;BME280;62974;49.460;10.892;2023-04-20T06:57:28;97682.59;;;4.85;81.85
73085;BME280;62974;49.460;10.892;2023-04-20T06:59:55;97685.38;;;5.15;81.18
73085;BME280;62974;49.460;10.892;2023-04-20T07:02:24;97683.56;;;5.00;81.84
73085;BME280;62974;49.460;10.892;2023-04-20T07:04:52;97690.31;;;5.35;81.74
73085;BME280;62974;49.460;10.892;2023-04-20T07:07:21;97674.72;;;5.24;80.56
73085;BME280;62974;49.460;10.892;2023-04-20T07:09:56;97687.88;;;5.17;81.56
73085;BME280;62974;49.460;10.892;2023-04-20T07:12:24;97688.16;;;5.22;81.49
73085;BME280;62974;49.460;10.892;2023-04-20T07:14:52;97683.50;;;5.40;81.42
73085;BME280;62974;49.460;10.892;2023-04-20T07:17:22;97676.56;;;5.62;79.63
73085;BME280;62974;49.460;10.892;2023-04-20T07:19:54;97676.31;;;5.49;79.49
73085;BME280;62974;49.460;10.892;2023-04-20T07:22:24;97674.28;;;5.51;79.67
73085;BME280;62974;49.460;10.892;2023-04-20T07:24:52;97684.84;;;5.36;80.24
73085;BME280;62974;49.460;10.892;2023-04-20T07:27:20;97687.97;;;5.48;80.02
73085;BME280;62974;49.460;10.892;2023-04-20T07:29:47;97685.44;;;5.46;79.77
73085;BME280;62974;49.460;10.892;2023-04-20T07:32:15;97684.09;;;5.50;79.37
73085;BME280;62974;49.460;10.892;2023-04-20T07:34:43;97692.72;;;5.68;80.31
73085;BME280;62974;49.460;10.892;2023-04-20T07:37:10;97682.00;;;5.85;79.79
73085;BME280;62974;49.460;10.892;2023-04-20T07:39:40;97683.97;;;5.44;78.52
73085;BME280;62974;49.460;10.892;2023-04-20T07:42:07;97676.22;;;5.73;78.47
73085;BME280;62974;49.460;10.892;2023-04-20T07:44:35;97683.97;;;5.83;79.66
73085;BME280;62974;49.460;10.892;2023-04-20T07:47:03;97674.50;;;5.80;78.29
73085;BME280;62974;49.460;10.892;2023-04-20T07:49:34;97682.22;;;6.06;78.12
73085;BME280;62974;49.460;10.892;2023-04-20T07:52:03;97669.31;;;6.18;77.02
73085;BME280;62974;49.460;10.892;2023-04-20T07:54:43;97676.16;;;6.20;76.42
73085;BME280;62974;49.460;10.892;2023-04-20T07:57:11;97671.72;;;6.12;75.29
73085;BME280;62974;49.460;10.892;2023-04-20T07:59:40;97670.25;;;6.33;75.19
73085;BME280;62974;49.460;10.892;2023-04-20T08:02:08;97680.44;;;6.52;75.51
73085;BME280;62974;49.460;10.892;2023-04-20T08:04:36;97670.94;;;6.49;73.99
73085;BME280;62974;49.460;10.892;2023-04-20T08:07:04;97667.13;;;6.52;72.67
73085;BME280;62974;49.460;10.892;2023-04-20T08:09:32;97661.19;;;6.65;73.10
73085;BME280;62974;49.460;10.892;2023-04-20T08:12:01;97660.97;;;6.66;72.37
73085;BME280;62974;49.460;10.892;2023-04-20T08:14:28;97667.44;;;6.72;71.89
73085;BME280;62974;49.460;10.892;2023-04-20T08:16:58;97654.31;;;6.85;72.80
73085;BME280;62974;49.460;10.892;2023-04-20T08:19:25;97657.78;;;7.23;72.22
73085;BME280;62974;49.460;10.892;2023-04-20T08:21:53;97657.94;;;6.92;72.94
73085;BME280;62974;49.460;10.892;2023-04-20T08:24:21;97646.28;;;7.37;71.08
73085;BME280;62974;49.460;10.892;2023-04-20T08:26:49;97646.44;;;7.06;70.52
73085;BME280;62974;49.460;10.892;2023-04-20T08:29:18;97648.19;;;7.14;71.28
73085;BME280;62974;49.460;10.892;2023-04-20T08:31:46;97645.44;;;7.07;71.08
73085;BME280;62974;49.460;10.892;2023-04-20T08:34:16;97647.47;;;7.20;70.89
73085;BME280;62974;49.460;10.892;2023-04-20T08:36:44;97646.28;;;7.37;69.91
73085;BME280;62974;49.460;10.892;2023-04-20T08:39:13;97652.25;;;7.53;71.27
73085;BME280;62974;49.460;10.892;2023-04-20T08:41:41;97648.84;;;7.16;69.81
73085;BME280;62974;49.460;10.892;2023-04-20T08:44:08;97651.16;;;7.33;69.99
73085;BME280;62974;49.460;10.892;2023-04-20T08:46:38;97645.91;;;7.54;69.78
73085;BME280;62974;49.460;10.892;2023-04-20T08:49:10;97657.25;;;7.27;70.23
73085;BME280;62974;49.460;10.892;2023-04-20T08:51:38;97650.03;;;7.57;69.69
73085;BME280;62974;49.460;10.892;2023-04-20T08:54:06;97648.13;;;7.51;68.35
73085;BME280;62974;49.460;10.892;2023-04-20T08:56:34;97643.91;;;7.92;68.61
73085;BME280;62974;49.460;10.892;2023-04-20T08:59:03;97631.91;;;7.67;66.40
73085;BME280;62974;49.460;10.892;2023-04-20T09:01:32;97637.88;;;7.84;67.77
73085;BME280;62974;49.460;10.892;2023-04-20T09:04:14;97635.13;;;7.63;66.54
73085;BME280;62974;49.460;10.892;2023-04-20T09:06:45;97644.63;;;7.50;67.01
73085;BME280;62974;49.460;10.892;2023-04-20T09:09:15;97654.28;;;7.37;67.59
73085;BME280;62974;49.460;10.892;2023-04-20T09:11:43;97652.81;;;7.34;66.70
73085;BME280;62974;49.460;10.892;2023-04-20T09:14:15;97644.25;;;7.39;67.34
73085;BME280;62974;49.460;10.892;2023-04-20T09:16:50;97649.59;;;7.68;67.16
73085;BME280;62974;49.460;10.892;2023-04-20T09:19:23;97645.88;;;7.69;67.23
73085;BME280;62974;49.460;10.892;2023-04-20T09:21:53;97652.34;;;7.75;68.00
73085;BME280;62974;49.460;10.892;2023-04-20T09:24:23;97635.03;;;7.71;67.02
73085;BME280;62974;49.460;10.892;2023-04-20T09:26:56;97638.91;;;7.68;67.26
73085;BME280;62974;49.460;10.892;2023-04-20T09:29:24;97626.59;;;7.88;66.15
73085;BME280;62974;49.460;10.892;2023-04-20T09:31:51;97620.97;;;7.98;66.04
73085;BME280;62974;49.460;10.892;2023-04-20T09:34:24;97620.44;;;7.88;66.29
73085;BME280;62974;49.460;10.892;2023-04-20T09:36:52;97622.13;;;7.74;65.74
73085;BME280;62974;49.460;10.892;2023-04-20T09:39:22;97619.44;;;7.74;66.10
73085;BME280;62974;49.460;10.892;2023-04-20T09:41:51;97619.41;;;7.89;65.40
73085;BME280;62974;49.460;10.892;2023-04-20T09:44:18;97616.16;;;7.72;64.66
73085;BME280;62974;49.460;10.892;2023-04-20T09:46:46;97610.81;;;8.08;64.25
73085;BME280;62974;49.460;10.892;2023-04-20T09:49:13;97610.13;;;8.42;64.99
73085;BME280;62974;49.460;10.892;2023-04-20T09:51:44;97606.38;;;8.58;63.25
73085;BME280;62974;49.460;10.892;2023-04-20T09:54:13;97613.59;;;8.21;63.57
73085;BME280;62974;49.460;10.892;2023-04-20T09:56:41;97602.22;;;8.34;63.45
73085;BME280;62974;49.460;10.892;2023-04-20T09:59:11;97606.53;;;8.14;64.21
73085;BME280;62974;49.460;10.892;2023-04-20T10:01:40;97613.06;;;8.47;63.53
73085;BME280;62974;49.460;10.892;2023-04-20T10:04:08;97600.22;;;8.21;63.46
73085;BME280;62974;49.460;10.892;2023-04-20T10:06:37;97596.94;;;8.62;62.83
73085;BME280;62974;49.460;10.892;2023-04-20T10:09:07;97594.06;;;8.63;62.51
73085;BME280;62974;49.460;10.892;2023-04-20T10:11:36;97596.84;;;8.13;62.46
73085;BME280;62974;49.460;10.892;2023-04-20T10:14:21;97595.88;;;8.20;62.91
73085;BME280;62974;49.460;10.892;2023-04-20T10:16:59;97597.56;;;8.00;62.82
73085;BME280;62974;49.460;10.892;2023-04-20T10:19:38;97594.75;;;8.08;64.35
73085;BME280;62974;49.460;10.892;2023-04-20T10:22:07;97588.13;;;8.04;64.03
73085;BME280;62974;49.460;10.892;2023-04-20T10:24:36;97590.97;;;7.67;65.19
73085;BME280;62974;49.460;10.892;2023-04-20T10:27:15;97591.44;;;7.70;65.62
73085;BME280;62974;49.460;10.892;2023-04-20T10:29:42;97583.59;;;7.69;66.17
73085;BME280;62974;49.460;10.892;2023-04-20T10:32:20;97592.53;;;7.61;65.60
73085;BME280;62974;49.460;10.892;2023-04-20T10:34:59;97593.59;;;7.60;65.83
73085;BME280;62974;49.460;10.892;2023-04-20T10:37:27;97584.34;;;7.63;66.12
73085;BME280;62974;49.460;10.892;2023-04-20T10:39:56;97580.41;;;7.59;66.34
73085;BME280;62974;49.460;10.892;2023-04-20T10:42:24;97577.69;;;7.73;66.56
73085;BME280;62974;49.460;10.892;2023-04-20T10:44:53;97577.25;;;7.70;67.10
73085;BME280;62974;49.460;10.892;2023-04-20T10:47:26;97576.78;;;7.66;66.93
73085;BME280;62974;49.460;10.892;2023-04-20T10:49:54;97563.13;;;7.76;67.27
73085;BME280;62974;49.460;10.892;2023-04-20T10:52:32;97563.81;;;7.48;67.05
73085;BME280;62974;49.460;10.892;2023-04-20T10:55:03;97560.78;;;7.51;66.09
73085;BME280;62974;49.460;10.892;2023-04-20T10:57:32;97555.28;;;7.74;67.53
73085;BME280;62974;49.460;10.892;2023-04-20T11:00:12;97558.91;;;7.67;66.05
73085;BME280;62974;49.460;10.892;2023-04-20T11:02:45;97560.69;;;7.95;67.25
73085;BME280;62974;49.460;10.892;2023-04-20T11:05:14;97560.59;;;7.89;67.75
73085;BME280;62974;49.460;10.892;2023-04-20T11:07:47;97552.69;;;7.81;67.25
73085;BME280;62974;49.460;10.892;2023-04-20T11:10:16;97543.78;;;7.74;67.67
73085;BME280;62974;49.460;10.892;2023-04-20T11:12:43;97539.97;;;7.83;67.80
73085;BME280;62974;49.460;10.892;2023-04-20T11:15:11;97546.81;;;8.07;68.24
73085;BME280;62974;49.460;10.892;2023-04-20T11:17:39;97539.66;;;7.71;67.72
73085;BME280;62974;49.460;10.892;2023-04-20T11:20:08;97529.81;;;7.57;67.92
73085;BME280;62974;49.460;10.892;2023-04-20T11:22:38;97521.75;;;7.93;67.26
73085;BME280;62974;49.460;10.892;2023-04-20T11:25:09;97509.31;;;8.49;68.20
73085;BME280;62974;49.460;10.892;2023-04-20T11:27:38;97505.81;;;8.48;66.54
73085;BME280;62974;49.460;10.892;2023-04-20T11:30:09;97504.50;;;9.00;68.07
73085;BME280;62974;49.460;10.892;2023-04-20T11:32:37;97508.50;;;8.48;67.37
73085;BME280;62974;49.460;10.892;2023-04-20T11:35:08;97517.03;;;8.31;68.59
73085;BME280;62974;49.460;10.892;2023-04-20T11:37:45;97511.78;;;8.23;68.73
73085;BME280;62974;49.460;10.892;2023-04-20T11:40:13;97493.66;;;8.74;67.68
73085;BME280;62974;49.460;10.892;2023-04-20T11:42:42;97491.91;;;8.87;66.36
73085;BME280;62974;49.460;10.892;2023-04-20T11:45:10;97499.41;;;8.71;66.53
73085;BME280;62974;49.460;10.892;2023-04-20T11:47:38;97496.50;;;8.38;67.01
73085;BME280;62974;49.460;10.892;2023-04-20T11:50:07;97500.50;;;8.27;68.04
73085;BME280;62974;49.460;10.892;2023-04-20T11:52:35;97501.25;;;8.21;67.56
73085;BME280;62974;49.460;10.892;2023-04-20T11:55:03;97509.50;;;8.20;68.36
73085;BME280;62974;49.460;10.892;2023-04-20T11:57:31;97507.25;;;8.23;68.86
73085;BME280;62974;49.460;10.892;2023-04-20T12:00:01;97502.53;;;8.25;68.71
73085;BME280;62974;49.460;10.892;2023-04-20T12:02:29;97500.19;;;8.16;68.74
73085;BME280;62974;49.460;10.892;2023-04-20T12:04:57;97499.41;;;8.00;68.42
73085;BME280;62974;49.460;10.892;2023-04-20T12:07:27;97503.88;;;8.15;69.68
73085;BME280;62974;49.460;10.892;2023-04-20T12:09:54;97494.06;;;8.22;68.85
73085;BME280;62974;49.460;10.892;2023-04-20T12:12:22;97513.19;;;7.97;69.14
73085;BME280;62974;49.460;10.892;2023-04-20T12:14:51;97516.31;;;7.80;69.92
73085;BME280;62974;49.460;10.892;2023-04-20T12:17:20;97511.06;;;7.93;69.82
73085;BME280;62974;49.460;10.892;2023-04-20T12:19:48;97517.75;;;7.82;70.37
73085;BME280;62974;49.460;10.892;2023-04-20T12:22:15;97514.56;;;7.93;70.92
73085;BME280;62974;49.460;10.892;2023-04-20T12:24:43;97508.47;;;7.78;71.10
73085;BME280;62974;49.460;10.892;2023-04-20T12:27:10;97511.06;;;7.93;71.21
73085;BME280;62974;49.460;10.892;2023-04-20T12:29:38;97514.09;;;7.69;70.91
73085;BME280;62974;49.460;10.892;2023-04-20T12:32:06;97510.66;;;7.53;70.85
73085;BME280;62974;49.460;10.892;2023-04-20T12:34:35;97520.63;;;7.81;71.55
73085;BME280;62974;49.460;10.892;2023-04-20T12:37:02;97522.66;;;7.79;71.05
73085;BME280;62974;49.460;10.892;2023-04-20T12:39:30;97518.94;;;7.59;71.45
73085;BME280;62974;49.460;10.892;2023-04-20T12:41:57;97511.66;;;7.67;72.10
73085;BME280;62974;49.460;10.892;2023-04-20T12:44:25;97506.59;;;7.57;71.70
73085;BME280;62974;49.460;10.892;2023-04-20T12:46:52;97505.47;;;7.67;72.12
73085;BME280;62974;49.460;10.892;2023-04-20T12:49:20;97511.25;;;7.70;72.18
73085;BME280;62974;49.460;10.892;2023-04-20T12:51:49;97509.03;;;7.74;71.84
73085;BME280;62974;49.460;10.892;2023-04-20T12:54:16;97502.13;;;7.65;72.03
73085;BME280;62974;49.460;10.892;2023-04-20T12:56:44;97505.09;;;7.70;72.51
73085;BME280;62974;49.460;10.892;2023-04-20T12:59:12;97507.31;;;7.66;72.43
73085;BME280;62974;49.460;10.892;2023-04-20T13:01:39;97505.75;;;7.57;72.32
73085;BME280;62974;49.460;10.892;2023-04-20T13:04:07;97513.66;;;7.65;72.66
73085;BME280;62974;49.460;10.892;2023-04-20T13:06:35;97509.09;;;7.59;73.50